createdAt,value
2023-04-27T00:00:09.497Z,3.50
2023-04-27T00:02:38.414Z,3.60
2023-04-27T00:05:11.741Z,3.20
2023-04-27T00:07:40.288Z,3.53
2023-04-27T00:10:11.151Z,3.38
2023-04-27T00:12:39.650Z,3.30
2023-04-27T00:15:10.076Z,3.30
2023-04-27T00:17:38.600Z,2.92
2023-04-27T00:20:11.908Z,2.88
2023-04-27T00:22:40.474Z,3.08
2023-04-27T00:25:10.024Z,2.65
2023-04-27T00:27:38.433Z,2.83
2023-04-27T00:30:08.689Z,3.05
2023-04-27T00:32:37.182Z,3.45
2023-04-27T00:35:10.111Z,3.03
2023-04-27T00:37:38.526Z,3.00
2023-04-27T00:40:09.110Z,2.78
2023-04-27T00:42:37.833Z,2.90
2023-04-27T00:45:07.684Z,3.15
2023-04-27T00:47:36.690Z,2.33
2023-04-27T00:50:08.815Z,3.75
2023-04-27T00:52:38.033Z,4.03
2023-04-27T00:55:08.430Z,2.85
2023-04-27T00:57:37.330Z,3.72
2023-04-27T01:00:07.981Z,3.50
2023-04-27T01:02:37.270Z,3.33
2023-04-27T01:05:08.726Z,3.30
2023-04-27T01:07:39.403Z,3.38
2023-04-27T01:10:09.689Z,3.22
2023-04-27T01:12:38.287Z,2.90
2023-04-27T01:15:09.366Z,2.95
2023-04-27T01:17:37.786Z,3.97
2023-04-27T01:20:10.508Z,3.00
2023-04-27T01:22:39.746Z,3.35
2023-04-27T01:25:11.123Z,2.40
2023-04-27T01:27:39.428Z,2.83
2023-04-27T01:30:09.486Z,2.60
2023-04-27T01:32:39.180Z,2.75
2023-04-27T01:35:08.624Z,2.58
2023-04-27T01:37:37.058Z,2.97
2023-04-27T01:40:07.537Z,2.38
2023-04-27T01:42:37.311Z,2.50
2023-04-27T01:45:07.184Z,2.90
2023-04-27T01:47:35.583Z,2.42
2023-04-27T01:50:04.346Z,2.55
2023-04-27T01:52:32.715Z,2.65
2023-04-27T01:55:01.033Z,2.40
2023-04-27T01:57:29.336Z,2.90
2023-04-27T01:59:58.996Z,3.22
2023-04-27T02:02:27.827Z,3.08
2023-04-27T02:04:56.329Z,3.00
2023-04-27T02:07:24.971Z,2.50
2023-04-27T02:09:53.303Z,3.05
2023-04-27T02:12:21.634Z,2.95
2023-04-27T02:14:49.937Z,2.83
2023-04-27T02:17:19.643Z,3.03
2023-04-27T02:19:47.972Z,2.85
2023-04-27T02:22:16.335Z,3.25
2023-04-27T02:24:44.655Z,3.38
2023-04-27T02:27:13.084Z,3.00
2023-04-27T02:29:41.910Z,3.25
2023-04-27T02:32:10.608Z,3.55
2023-04-27T02:34:40.615Z,2.70
2023-04-27T02:37:08.960Z,2.38
2023-04-27T02:39:37.287Z,3.60
2023-04-27T02:42:05.922Z,3.30
2023-04-27T02:44:34.239Z,2.80
2023-04-27T02:47:02.679Z,3.40
2023-04-27T02:49:31.992Z,3.10
2023-04-27T02:52:01.695Z,2.97
2023-04-27T02:54:30.105Z,3.17
2023-04-27T02:56:58.463Z,3.00
2023-04-27T02:59:26.847Z,3.20
2023-04-27T03:01:55.494Z,2.92
2023-04-27T03:04:23.959Z,2.67
2023-04-27T03:06:52.449Z,3.35
2023-04-27T03:09:22.165Z,3.28
2023-04-27T03:11:50.713Z,2.85
2023-04-27T03:14:19.399Z,3.10
2023-04-27T03:16:48.015Z,3.88
2023-04-27T03:19:16.764Z,3.30
2023-04-27T03:21:45.101Z,2.20
2023-04-27T03:24:13.403Z,3.28
2023-04-27T03:26:43.346Z,2.78
2023-04-27T03:29:11.847Z,3.10
2023-04-27T03:31:40.591Z,3.25
2023-04-27T03:34:08.930Z,2.90
2023-04-27T03:36:37.194Z,2.92
2023-04-27T03:39:05.666Z,3.58
2023-04-27T03:41:34.149Z,3.00
2023-04-27T03:44:04.258Z,3.38
2023-04-27T03:46:32.804Z,3.13
2023-04-27T03:49:01.453Z,3.67
2023-04-27T03:51:32.141Z,3.53
2023-04-27T03:54:00.917Z,3.08
2023-04-27T03:56:29.251Z,3.25
2023-04-27T03:58:57.581Z,4.00
2023-04-27T04:01:27.674Z,3.63
2023-04-27T04:03:56.655Z,3.00
2023-04-27T04:06:25.104Z,3.35
2023-04-27T04:08:53.436Z,3.67
2023-04-27T04:11:22.563Z,2.97
2023-04-27T04:13:51.175Z,3.22
2023-04-27T04:16:19.600Z,3.28
2023-04-27T04:18:49.802Z,3.95
2023-04-27T04:21:18.096Z,3.47
2023-04-27T04:23:46.486Z,3.83
2023-04-27T04:26:15.036Z,2.92
2023-04-27T04:28:44.211Z,3.17
2023-04-27T04:31:13.578Z,3.72
2023-04-27T04:33:41.984Z,3.70
2023-04-27T04:36:12.097Z,3.67
2023-04-27T04:38:40.750Z,2.47
2023-04-27T04:41:10.197Z,3.28
2023-04-27T04:43:38.607Z,2.65
2023-04-27T04:46:08.050Z,4.07
2023-04-27T04:48:37.945Z,3.55
2023-04-27T04:51:07.441Z,3.38
2023-04-27T04:53:38.095Z,3.83
2023-04-27T04:56:14.167Z,3.85
2023-04-27T04:58:42.578Z,4.18
2023-04-27T05:01:11.750Z,5.32
2023-04-27T05:03:40.821Z,7.13
2023-04-27T05:06:09.568Z,5.57
2023-04-27T05:08:39.338Z,4.45
2023-04-27T05:11:09.184Z,4.30
2023-04-27T05:13:38.431Z,4.18
2023-04-27T05:16:07.400Z,4.40
2023-04-27T05:18:36.354Z,4.63
2023-04-27T05:21:05.487Z,4.65
2023-04-27T05:23:33.855Z,4.28
2023-04-27T05:26:11.941Z,4.88
2023-04-27T05:28:40.427Z,4.32
2023-04-27T05:31:09.014Z,5.65
2023-04-27T05:33:37.722Z,4.97
2023-04-27T05:36:06.942Z,3.92
2023-04-27T05:38:36.231Z,4.88
2023-04-27T05:41:06.059Z,4.53
2023-04-27T05:43:35.127Z,4.70
2023-04-27T05:46:03.600Z,5.72
2023-04-27T05:48:32.104Z,5.53
2023-04-27T05:51:04.565Z,6.10
2023-04-27T05:53:35.754Z,6.80
2023-04-27T05:56:06.875Z,4.55
2023-04-27T05:58:35.551Z,4.50
2023-04-27T06:01:04.434Z,5.20
2023-04-27T06:03:33.249Z,4.40
2023-04-27T06:06:03.314Z,4.15
2023-04-27T06:08:31.867Z,4.90
2023-04-27T06:11:00.225Z,3.95
2023-04-27T06:13:29.978Z,3.80
2023-04-27T06:15:58.447Z,3.45
2023-04-27T06:18:26.780Z,3.92
2023-04-27T06:20:59.453Z,3.78
2023-04-27T06:23:27.881Z,5.18
2023-04-27T06:25:56.298Z,4.60
2023-04-27T06:28:24.691Z,4.30
2023-04-27T06:30:55.573Z,4.57
2023-04-27T06:33:23.863Z,4.85
2023-04-27T06:35:52.294Z,4.63
2023-04-27T06:38:20.664Z,5.13
2023-04-27T06:40:53.463Z,4.35
2023-04-27T06:43:21.917Z,3.70
2023-04-27T06:45:50.462Z,3.92
2023-04-27T06:48:20.420Z,4.38
2023-04-27T06:50:49.061Z,4.00
2023-04-27T06:53:18.133Z,4.38
2023-04-27T06:55:48.416Z,4.35
2023-04-27T06:58:17.153Z,4.28
2023-04-27T07:00:45.713Z,4.80
2023-04-27T07:03:14.814Z,3.97
2023-04-27T07:05:45.140Z,3.40
2023-04-27T07:08:14.511Z,3.60
2023-04-27T07:10:43.253Z,4.07
2023-04-27T07:13:12.603Z,3.70
2023-04-27T07:15:42.647Z,3.83
2023-04-27T07:18:12.213Z,4.18
2023-04-27T07:20:41.892Z,3.60
2023-04-27T07:23:11.634Z,4.13
2023-04-27T07:25:40.504Z,3.53
2023-04-27T07:28:09.072Z,3.67
2023-04-27T07:30:37.579Z,3.78
2023-04-27T07:33:06.193Z,3.25
2023-04-27T07:35:34.829Z,2.70
2023-04-27T07:38:03.870Z,4.60
2023-04-27T07:40:34.613Z,3.55
2023-04-27T07:43:03.081Z,3.80
2023-04-27T07:45:33.117Z,3.53
2023-04-27T07:48:02.997Z,3.42
2023-04-27T07:50:32.118Z,4.60
2023-04-27T07:53:01.107Z,3.22
2023-04-27T07:55:29.888Z,3.83
2023-04-27T07:57:59.730Z,4.35
2023-04-27T08:00:28.375Z,4.15
2023-04-27T08:02:57.437Z,3.40
2023-04-27T08:05:26.556Z,2.90
2023-04-27T08:07:55.183Z,3.13
2023-04-27T08:10:24.394Z,3.05
2023-04-27T08:12:52.943Z,3.88
2023-04-27T08:15:23.118Z,3.63
2023-04-27T08:17:51.570Z,3.05
2023-04-27T08:20:20.516Z,3.08
2023-04-27T08:22:48.929Z,3.60
2023-04-27T08:25:17.359Z,3.35
2023-04-27T08:27:45.832Z,2.47
2023-04-27T08:30:15.223Z,2.22
2023-04-27T08:32:45.087Z,6.15
2023-04-27T08:35:14.882Z,3.33
2023-04-27T08:37:44.302Z,2.58
2023-04-27T08:40:13.992Z,3.28
2023-04-27T08:42:56.222Z,2.95
2023-04-27T08:45:25.172Z,3.25
2023-04-27T08:47:55.755Z,2.83
2023-04-27T08:50:24.652Z,3.30
2023-04-27T08:52:53.479Z,3.72
2023-04-27T08:55:22.227Z,3.85
2023-04-27T08:57:58.299Z,3.45
2023-04-27T09:00:39.689Z,3.80
2023-04-27T09:03:10.468Z,2.58
2023-04-27T09:06:00.580Z,2.47
2023-04-27T09:08:44.548Z,3.42
2023-04-27T09:11:15.029Z,3.90
2023-04-27T09:13:45.622Z,3.55
2023-04-27T09:16:15.346Z,2.85
2023-04-27T09:18:45.493Z,2.92
2023-04-27T09:21:24.728Z,2.95
2023-04-27T09:23:53.765Z,4.03
2023-04-27T09:26:24.226Z,2.95
2023-04-27T09:28:57.514Z,4.57
2023-04-27T09:31:33.139Z,2.88
2023-04-27T09:34:04.004Z,3.50
2023-04-27T09:36:33.447Z,2.80
2023-04-27T09:39:06.111Z,3.83
2023-04-27T09:41:35.300Z,2.88
2023-04-27T09:44:05.929Z,3.25
2023-04-27T09:46:35.655Z,3.13
2023-04-27T09:49:06.954Z,3.70
2023-04-27T09:51:36.028Z,3.00
2023-04-27T09:54:06.026Z,4.00
2023-04-27T09:56:53.116Z,3.92
2023-04-27T09:59:42.948Z,3.95
2023-04-27T10:02:24.692Z,3.70
2023-04-27T10:05:26.898Z,3.70
2023-04-27T10:07:55.733Z,3.47
2023-04-27T10:10:24.083Z,4.32
2023-04-27T10:13:01.825Z,3.60
2023-04-27T10:15:32.046Z,3.65
2023-04-27T10:18:07.454Z,3.03
2023-04-27T10:20:38.722Z,3.33
2023-04-27T10:23:07.300Z,3.50
2023-04-27T10:25:41.371Z,3.53
2023-04-27T10:28:16.378Z,4.13
2023-04-27T10:30:49.119Z,3.42
2023-04-27T10:33:20.306Z,3.58
2023-04-27T10:35:59.049Z,4.45
2023-04-27T10:38:33.159Z,4.80
2023-04-27T10:41:05.501Z,3.90
2023-04-27T10:43:37.440Z,3.55
2023-04-27T10:46:10.864Z,4.13
2023-04-27T10:48:40.875Z,3.80
2023-04-27T10:51:11.222Z,3.88
2023-04-27T10:53:39.816Z,3.83
2023-04-27T10:56:08.848Z,4.47
2023-04-27T11:01:10.497Z,3.72
2023-04-27T11:03:39.088Z,4.80
2023-04-27T11:06:08.690Z,3.75
2023-04-27T11:08:45.658Z,4.15
2023-04-27T11:11:16.922Z,3.78
2023-04-27T11:13:46.474Z,4.93
2023-04-27T11:16:14.967Z,3.35
2023-04-27T11:18:43.947Z,4.28
2023-04-27T11:21:15.073Z,4.60
2023-04-27T11:23:45.238Z,4.68
2023-04-27T11:26:16.184Z,4.43
2023-04-27T11:28:45.906Z,4.07
2023-04-27T11:31:14.538Z,4.53
2023-04-27T11:33:49.940Z,4.50
2023-04-27T11:36:19.197Z,4.15
2023-04-27T11:38:49.111Z,4.40
2023-04-27T11:41:17.758Z,5.03
2023-04-27T11:43:49.509Z,4.78
2023-04-27T11:46:22.420Z,4.65
2023-04-27T11:48:51.066Z,3.90
2023-04-27T11:51:19.474Z,4.10
2023-04-27T11:53:51.255Z,5.00
2023-04-27T11:56:19.580Z,4.38
2023-04-27T11:58:47.986Z,6.15
2023-04-27T12:01:22.020Z,4.80
2023-04-27T12:04:02.251Z,4.93
2023-04-27T12:06:33.148Z,4.18
2023-04-27T12:09:04.208Z,5.00
2023-04-27T12:11:32.823Z,4.97
2023-04-27T12:14:01.228Z,5.28
2023-04-27T12:16:29.772Z,4.53
2023-04-27T12:18:58.179Z,4.47
2023-04-27T12:21:26.874Z,4.28
2023-04-27T12:23:55.272Z,5.57
2023-04-27T12:26:25.631Z,4.57
2023-04-27T12:28:54.078Z,5.55
2023-04-27T12:31:26.863Z,4.90
2023-04-27T12:33:56.194Z,4.93
2023-04-27T12:36:24.659Z,4.85
2023-04-27T12:38:53.488Z,4.32
2023-04-27T12:41:23.409Z,4.80
2023-04-27T12:43:53.291Z,4.40
2023-04-27T12:46:21.822Z,4.93
2023-04-27T12:48:50.284Z,5.47
2023-04-27T12:51:19.896Z,5.05
2023-04-27T12:53:48.284Z,3.60
2023-04-27T12:56:16.851Z,3.55
2023-04-27T12:58:45.677Z,4.90
2023-04-27T13:01:15.790Z,4.18
2023-04-27T13:03:44.770Z,5.25
2023-04-27T13:06:13.315Z,5.00
2023-04-27T13:08:42.827Z,4.68
2023-04-27T13:11:11.586Z,5.20
2023-04-27T13:13:40.063Z,6.68
2023-04-27T13:16:08.954Z,4.63
2023-04-27T13:18:38.741Z,4.55
2023-04-27T13:21:07.478Z,4.53
2023-04-27T13:23:36.071Z,4.45
2023-04-27T13:26:04.687Z,3.80
2023-04-27T13:28:33.074Z,4.20
2023-04-27T13:31:01.730Z,4.50
2023-04-27T13:33:30.369Z,3.95
2023-04-27T13:36:02.263Z,3.50
2023-04-27T13:38:30.922Z,3.22
2023-04-27T13:40:59.376Z,2.72
2023-04-27T13:43:28.065Z,3.25
2023-04-27T13:45:57.776Z,3.17
2023-04-27T13:48:27.556Z,3.22
2023-04-27T13:50:56.392Z,2.78
2023-04-27T13:53:26.964Z,4.07
2023-04-27T13:55:56.664Z,2.80
2023-04-27T13:58:26.404Z,3.80
2023-04-27T14:00:55.127Z,3.35
2023-04-27T14:03:23.739Z,2.90
2023-04-27T14:05:52.420Z,2.83
2023-04-27T14:08:21.189Z,4.00
2023-04-27T14:10:51.284Z,3.15
2023-04-27T14:13:20.506Z,3.10
2023-04-27T14:15:48.971Z,3.30
2023-04-27T14:18:17.383Z,2.50
2023-04-27T14:20:46.525Z,3.55
2023-04-27T14:23:14.914Z,2.78
2023-04-27T14:25:43.279Z,3.13
2023-04-27T14:28:14.706Z,3.00
2023-04-27T14:30:43.162Z,2.75
2023-04-27T14:33:11.520Z,2.70
2023-04-27T14:35:39.993Z,3.50
2023-04-27T14:38:08.704Z,2.20
2023-04-27T14:40:37.127Z,3.05
2023-04-27T14:43:05.600Z,2.35
2023-04-27T14:45:47.712Z,3.22
2023-04-27T14:48:16.620Z,2.83
2023-04-27T14:50:45.122Z,3.10
2023-04-27T14:53:13.517Z,3.53
2023-04-27T14:55:44.222Z,2.80
2023-04-27T14:58:12.700Z,3.08
2023-04-27T15:00:42.568Z,3.35
2023-04-27T15:03:12.077Z,2.90
2023-04-27T15:05:40.867Z,2.85
2023-04-27T15:08:09.186Z,2.40
2023-04-27T15:10:37.532Z,3.35
2023-04-27T15:13:05.839Z,2.72
2023-04-27T15:15:34.207Z,3.35
2023-04-27T15:18:04.122Z,2.80
2023-04-27T15:20:32.641Z,3.35
2023-04-27T15:23:01.177Z,2.88
2023-04-27T15:25:29.714Z,3.20
2023-04-27T15:27:58.491Z,3.13
2023-04-27T15:30:27.128Z,3.53
2023-04-27T15:32:55.909Z,3.08
2023-04-27T15:35:25.896Z,2.97
2023-04-27T15:37:54.240Z,2.22
2023-04-27T15:40:22.910Z,3.03
2023-04-27T15:42:51.277Z,3.08
2023-04-27T15:45:20.015Z,3.50
2023-04-27T15:47:48.421Z,3.33
2023-04-27T15:50:18.100Z,2.65
2023-04-27T15:52:47.897Z,2.60
2023-04-27T15:55:16.665Z,2.63
2023-04-27T15:57:45.088Z,2.42
2023-04-27T16:00:16.749Z,2.70
2023-04-27T16:02:45.266Z,4.22
2023-04-27T16:05:13.739Z,3.80
2023-04-27T16:07:44.304Z,3.92
2023-04-27T16:10:14.330Z,2.65
2023-04-27T16:12:43.093Z,2.45
2023-04-27T16:15:12.397Z,3.03
2023-04-27T16:17:41.035Z,5.22
2023-04-27T16:20:10.262Z,3.03
2023-04-27T16:22:39.048Z,2.63
2023-04-27T16:25:11.209Z,2.80
2023-04-27T16:27:41.334Z,2.55
2023-04-27T16:30:10.849Z,3.08
2023-04-27T16:32:39.604Z,2.70
2023-04-27T16:35:09.502Z,3.53
2023-04-27T16:37:38.339Z,3.08
2023-04-27T16:40:08.782Z,3.55
2023-04-27T16:42:37.142Z,2.85
2023-04-27T16:45:10.689Z,2.75
2023-04-27T16:47:39.730Z,3.00
2023-04-27T16:50:08.880Z,2.47
2023-04-27T16:52:37.310Z,2.58
2023-04-27T16:55:07.544Z,2.88
2023-04-27T16:57:35.958Z,2.85
2023-04-27T17:00:06.212Z,3.28
2023-04-27T17:02:36.090Z,2.72
2023-04-27T17:05:04.774Z,2.13
2023-04-27T17:07:33.607Z,2.65
2023-04-27T17:10:02.009Z,2.85
2023-04-27T17:12:30.327Z,3.13
2023-04-27T17:14:58.734Z,3.45
2023-04-27T17:17:27.186Z,4.57
2023-04-27T17:19:57.152Z,3.55
2023-04-27T17:22:25.848Z,2.90
2023-04-27T17:24:54.278Z,4.13
2023-04-27T17:27:23.480Z,3.50
2023-04-27T17:29:57.693Z,4.32
2023-04-27T17:32:26.529Z,3.42
2023-04-27T17:34:57.568Z,2.92
2023-04-27T17:37:26.795Z,2.75
2023-04-27T17:39:55.209Z,2.90
2023-04-27T17:42:23.649Z,2.42
2023-04-27T17:44:52.196Z,3.13
2023-04-27T17:47:22.362Z,2.72
2023-04-27T17:49:50.776Z,3.05
2023-04-27T17:52:20.993Z,3.38
2023-04-27T17:54:49.616Z,3.33
2023-04-27T17:57:17.930Z,2.88
2023-04-27T17:59:46.706Z,3.55
2023-04-27T18:02:15.577Z,3.22
2023-04-27T18:04:44.369Z,3.35
2023-04-27T18:07:14.900Z,2.58
2023-04-27T18:09:45.218Z,4.53
2023-04-27T18:12:13.815Z,5.47
2023-04-27T18:14:42.207Z,4.60
2023-04-27T18:17:11.029Z,4.45
2023-04-27T18:19:41.000Z,4.50
2023-04-27T18:22:10.224Z,3.85
2023-04-27T18:24:38.667Z,3.85
2023-04-27T18:27:09.869Z,4.32
2023-04-27T18:29:39.598Z,4.70
2023-04-27T18:32:08.338Z,4.90
2023-04-27T18:34:37.376Z,6.53
2023-04-27T18:37:06.493Z,4.57
2023-04-27T18:39:34.895Z,4.70
2023-04-27T18:42:05.900Z,4.05
2023-04-27T18:44:36.428Z,4.53
2023-04-27T18:47:06.270Z,4.30
2023-04-27T18:49:34.608Z,5.10
2023-04-27T18:52:03.949Z,4.15
2023-04-27T18:54:33.700Z,3.42
2023-04-27T18:57:06.724Z,3.80
2023-04-27T18:59:38.326Z,4.80
2023-04-27T19:02:08.862Z,4.53
2023-04-27T19:04:41.112Z,4.05
2023-04-27T19:07:14.431Z,3.88
2023-04-27T19:09:43.594Z,4.43
2023-04-27T19:12:12.917Z,3.65
2023-04-27T19:14:43.277Z,3.80
2023-04-27T19:17:12.835Z,4.43
2023-04-27T19:19:41.769Z,2.85
2023-04-27T19:22:11.389Z,3.80
2023-04-27T19:24:40.088Z,3.72
2023-04-27T19:27:10.724Z,3.28
2023-04-27T19:29:53.867Z,4.10
2023-04-27T19:32:25.717Z,4.40
2023-04-27T19:34:55.156Z,3.67
2023-04-27T19:37:23.837Z,4.00
2023-04-27T19:39:52.568Z,2.83
2023-04-27T19:42:21.628Z,3.88
2023-04-27T19:44:51.536Z,3.63
2023-04-27T19:47:20.226Z,3.72
2023-04-27T19:49:48.783Z,3.58
2023-04-27T19:52:18.286Z,3.45
2023-04-27T19:54:52.288Z,3.75
2023-04-27T19:57:21.263Z,3.47
2023-04-27T19:59:51.723Z,3.38
2023-04-27T20:02:20.314Z,4.13
2023-04-27T20:04:49.018Z,4.03
2023-04-27T20:07:17.683Z,3.70
2023-04-27T20:09:46.103Z,4.32
2023-04-27T20:12:29.244Z,4.90
2023-04-27T20:15:04.803Z,3.53
2023-04-27T20:17:33.241Z,3.45
2023-04-27T20:20:02.156Z,4.07
2023-04-27T20:22:30.573Z,3.17
2023-04-27T20:25:00.264Z,3.67
2023-04-27T20:27:28.680Z,3.53
2023-04-27T20:29:56.993Z,4.35
2023-04-27T20:32:26.860Z,3.97
2023-04-27T20:34:55.317Z,4.60
2023-04-27T20:37:24.880Z,3.70
2023-04-27T20:39:53.449Z,6.68
2023-04-27T20:42:21.953Z,6.00
2023-04-27T20:44:50.522Z,5.68
2023-04-27T20:47:18.886Z,5.25
2023-04-27T20:49:48.677Z,5.15
2023-04-27T20:52:17.204Z,20.90
2023-04-27T20:54:45.722Z,8.68
2023-04-27T20:57:14.526Z,7.55
2023-04-27T20:59:42.971Z,5.80
2023-04-27T21:02:11.533Z,5.72
2023-04-27T21:04:40.421Z,5.35
2023-04-27T21:07:10.366Z,5.38
2023-04-27T21:09:39.122Z,4.97
2023-04-27T21:12:08.677Z,4.88
2023-04-27T21:14:37.525Z,6.68
2023-04-27T21:17:06.105Z,4.93
2023-04-27T21:19:34.612Z,4.90
2023-04-27T21:22:03.064Z,4.68
2023-04-27T21:24:32.905Z,4.65
2023-04-27T21:27:01.843Z,4.95
2023-04-27T21:29:30.324Z,5.35
2023-04-27T21:31:58.739Z,4.43
2023-04-27T21:34:27.095Z,5.13
2023-04-27T21:36:55.632Z,5.40
2023-04-27T21:39:24.030Z,5.30
2023-04-27T21:41:53.848Z,5.95
2023-04-27T21:44:22.297Z,5.60
2023-04-27T21:46:51.469Z,5.95
2023-04-27T21:49:20.097Z,5.65
2023-04-27T21:51:48.524Z,5.65
2023-04-27T21:54:17.133Z,6.47
2023-04-27T21:56:45.844Z,6.40
2023-04-27T21:59:15.549Z,5.20
2023-04-27T22:01:43.966Z,5.43
2023-04-27T22:04:12.573Z,5.97
2023-04-27T22:06:41.098Z,5.30
2023-04-27T22:09:09.497Z,4.90
2023-04-27T22:11:37.903Z,4.88
2023-04-27T22:14:06.412Z,5.47
2023-04-27T22:16:36.514Z,4.97
2023-04-27T22:19:04.983Z,6.03
2023-04-27T22:21:33.327Z,5.97
2023-04-27T22:24:01.668Z,5.65
2023-04-27T22:26:29.987Z,5.55
2023-04-27T22:28:58.782Z,6.40
2023-04-27T22:31:27.233Z,4.55
2023-04-27T22:33:57.100Z,5.47
2023-04-27T22:36:25.875Z,5.35
2023-04-27T22:38:54.253Z,5.38
2023-04-27T22:41:22.583Z,4.78
2023-04-27T22:43:51.072Z,4.90
2023-04-27T22:46:19.407Z,5.10
2023-04-27T22:48:47.727Z,4.72
2023-04-27T22:51:17.682Z,6.20
2023-04-27T22:53:46.201Z,5.18
2023-04-27T22:56:14.530Z,5.85
2023-04-27T22:58:42.861Z,5.38
2023-04-27T23:01:11.248Z,6.60
2023-04-27T23:03:40.097Z,5.35
2023-04-27T23:06:14.252Z,5.50
2023-04-27T23:08:47.132Z,5.95
2023-04-27T23:11:18.891Z,5.13
2023-04-27T23:13:50.677Z,5.63
2023-04-27T23:16:19.001Z,5.35
2023-04-27T23:18:47.363Z,5.35
2023-04-27T23:21:15.733Z,5.40
2023-04-27T23:23:45.583Z,4.72
2023-04-27T23:26:15.019Z,5.63
2023-04-27T23:28:44.362Z,4.47
2023-04-27T23:31:12.779Z,4.70
2023-04-27T23:33:41.179Z,4.68
2023-04-27T23:36:09.878Z,5.28
2023-04-27T23:38:38.178Z,5.13
2023-04-27T23:41:07.981Z,4.63
2023-04-27T23:43:36.348Z,5.35
2023-04-27T23:46:05.826Z,4.75
2023-04-27T23:48:34.240Z,5.18
2023-04-27T23:51:04.497Z,5.38
2023-04-27T23:53:32.995Z,5.45
2023-04-27T23:56:01.341Z,4.82
2023-04-27T23:58:31.100Z,4.93
